Time,TemperatureF,DewpointF,PressureIn,WindDirection,WindDirectionDegrees,WindSpeedMPH,WindSpeedGustMPH,Humidity,HourlyPrecipIn,Conditions,Clouds,dailyrainin,SoftwareType,DateUTC
2013-01-27 00:00:00,16.3,-1.7,30.06,West,263,9.6,15.2,44,0.00,,---,0.00,VWS V14.01,2013-01-27 05:00:00,
2013-01-27 00:01:00,16.3,-1.7,30.06,WNW,282,11.2,15.2,44,0.00,,---,0.00,VWS V14.01,2013-01-27 05:01:00,
2013-01-27 00:06:00,15.8,-2.2,30.06,WNW,297,18.6,18.6,44,0.00,,---,0.00,VWS V14.01,2013-01-27 05:06:00,
2013-01-27 00:11:00,16.0,-2.1,30.06,West,274,18.6,18.6,44,0.00,,---,0.00,VWS V14.01,2013-01-27 05:11:00,
2013-01-27 00:16:00,16.2,-1.9,30.06,West,276,24.2,24.2,44,0.00,,---,0.00,VWS V14.01,2013-01-27 05:16:00,
2013-01-27 00:21:00,16.0,-2.1,30.06,West,280,16.3,19.0,44,0.00,,---,0.00,VWS V14.01,2013-01-27 05:21:00,
2013-01-27 00:26:00,15.6,-2.4,30.06,West,263,15.9,19.0,44,0.00,,---,0.00,VWS V14.01,2013-01-27 05:26:00,
2013-01-27 00:30:00,15.6,-2.4,30.06,West,270,13.9,19.0,44,0.00,,---,0.00,VWS V14.01,2013-01-27 05:30:00,
2013-01-27 00:35:00,15.6,-2.4,30.06,West,268,13.9,14.3,44,0.00,,---,0.00,VWS V14.01,2013-01-27 05:35:00,
2013-01-27 00:40:00,15.4,-2.6,30.06,West,275,11.6,18.6,44,0.00,,---,0.00,VWS V14.01,2013-01-27 05:40:00,
2013-01-27 00:45:00,15.4,-2.6,30.06,WSW,257,12.5,21.0,44,0.00,,---,0.00,VWS V14.01,2013-01-27 05:45:00,
2013-01-27 00:50:00,15.6,-2.4,30.06,West,262,15.4,19.9,44,0.00,,---,0.00,VWS V14.01,2013-01-27 05:50:00,
2013-01-27 00:55:00,15.6,-2.4,30.06,West,275,22.4,22.8,44,0.00,,---,0.00,VWS V14.01,2013-01-27 05:55:00,
2013-01-27 01:00:00,15.3,-2.7,30.06,West,280,15.2,19.0,44,0.00,,---,0.00,VWS V14.01,2013-01-27 06:00:00,
2013-01-27 01:05:00,15.3,-2.7,30.06,West,280,15.4,21.5,44,0.00,,---,0.00,VWS V14.01,2013-01-27 06:05:00,
2013-01-27 01:10:00,15.1,-2.9,30.06,West,276,26.6,26.6,44,0.00,,---,0.00,VWS V14.01,2013-01-27 06:10:00,
2013-01-27 01:15:00,14.9,-3.1,30.06,WNW,289,13.0,20.1,44,0.00,,---,0.00,VWS V14.01,2013-01-27 06:15:00,
2013-01-27 01:20:00,14.7,-3.2,30.06,West,268,13.9,16.3,44,0.00,,---,0.00,VWS V14.01,2013-01-27 06:20:00,
2013-01-27 01:25:00,14.4,-3.6,30.09,West,280,20.1,20.1,44,0.00,,---,0.00,VWS V14.01,2013-01-27 06:25:00,
2013-01-27 01:30:00,14.4,-3.6,30.09,West,277,17.7,21.0,44,0.00,,---,0.00,VWS V14.01,2013-01-27 06:30:00,
2013-01-27 01:35:00,14.4,-3.6,30.09,WNW,290,12.5,17.2,44,0.00,,---,0.00,VWS V14.01,2013-01-27 06:35:00,
2013-01-27 01:40:00,14.4,-3.6,30.09,West,277,17.7,21.5,44,0.00,,---,0.00,VWS V14.01,2013-01-27 06:40:00,
2013-01-27 01:45:00,14.2,-3.2,30.09,West,272,19.0,19.9,45,0.00,,---,0.00,VWS V14.01,2013-01-27 06:45:00,
2013-01-27 01:50:00,14.2,-3.2,30.09,West,267,17.2,21.5,45,0.00,,---,0.00,VWS V14.01,2013-01-27 06:50:00,
2013-01-27 01:55:00,14.2,-3.2,30.09,WNW,300,12.1,16.8,45,0.00,,---,0.00,VWS V14.01,2013-01-27 06:55:00,
2013-01-27 02:00:00,14.2,-3.2,30.09,West,279,23.7,23.7,45,0.00,,---,0.00,VWS V14.01,2013-01-27 07:00:00,
2013-01-27 02:05:00,14.2,-3.2,30.09,West,273,12.1,15.9,45,0.00,,---,0.00,VWS V14.01,2013-01-27 07:05:00,
2013-01-27 02:13:00,14.2,-3.2,30.09,West,271,15.2,15.2,45,0.00,,---,0.00,VWS V14.01,2013-01-27 07:13:00,
2013-01-27 02:18:00,14.2,-3.2,30.09,West,268,12.1,16.8,45,0.00,,---,0.00,VWS V14.01,2013-01-27 07:18:00,
2013-01-27 02:23:00,14.2,-3.2,30.09,West,278,16.8,18.1,45,0.00,,---,0.00,VWS V14.01,2013-01-27 07:23:00,
2013-01-27 02:28:00,14.4,-3.1,30.09,West,273,15.4,16.8,45,0.00,,---,0.00,VWS V14.01,2013-01-27 07:28:00,
2013-01-27 02:33:00,14.4,-3.1,30.09,WNW,298,16.8,16.8,45,0.00,,---,0.00,VWS V14.01,2013-01-27 07:33:00,
2013-01-27 02:38:00,14.2,-3.2,30.09,West,259,11.2,11.6,45,0.00,,---,0.00,VWS V14.01,2013-01-27 07:38:00,
2013-01-27 02:43:00,14.4,-3.1,30.09,WNW,286,17.2,18.1,45,0.00,,---,0.00,VWS V14.01,2013-01-27 07:43:00,
2013-01-27 02:48:00,14.2,-3.2,30.09,West,273,20.1,20.1,45,0.00,,---,0.00,VWS V14.01,2013-01-27 07:48:00,
2013-01-27 02:53:00,14.4,-3.1,30.09,West,279,19.0,21.5,45,0.00,,---,0.00,VWS V14.01,2013-01-27 07:53:00,
2013-01-27 02:58:00,14.0,-3.4,30.09,WNW,285,15.2,16.3,45,0.00,,---,0.00,VWS V14.01,2013-01-27 07:58:00,
2013-01-27 03:03:00,14.2,-3.2,30.09,West,265,17.7,17.7,45,0.00,,---,0.00,VWS V14.01,2013-01-27 08:03:00,
2013-01-27 03:08:00,14.2,-3.2,30.09,West,272,13.0,13.0,45,0.00,,---,0.00,VWS V14.01,2013-01-27 08:08:00,
2013-01-27 03:13:00,14.2,-2.8,30.09,West,275,17.2,20.6,46,0.00,,---,0.00,VWS V14.01,2013-01-27 08:13:00,
2013-01-27 03:18:00,14.2,-2.8,30.09,WNW,297,11.0,11.2,46,0.00,,---,0.00,VWS V14.01,2013-01-27 08:18:00,
2013-01-27 03:23:00,14.0,-3.0,30.09,West,260,10.5,11.2,46,0.00,,---,0.00,VWS V14.01,2013-01-27 08:23:00,
2013-01-27 03:28:00,14.0,-3.0,30.09,West,278,11.6,17.2,46,0.00,,---,0.00,VWS V14.01,2013-01-27 08:28:00,
2013-01-27 03:33:00,14.2,-2.8,30.09,WNW,283,18.6,18.6,46,0.00,,---,0.00,VWS V14.01,2013-01-27 08:33:00,
2013-01-27 03:38:00,14.0,-3.0,30.09,West,270,13.0,13.9,46,0.00,,---,0.00,VWS V14.01,2013-01-27 08:38:00,
2013-01-27 03:43:00,14.0,-3.0,30.09,West,263,15.9,19.5,46,0.00,,---,0.00,VWS V14.01,2013-01-27 08:43:00,
2013-01-27 03:48:00,14.0,-3.0,30.09,WNW,298,11.6,19.0,46,0.00,,---,0.00,VWS V14.01,2013-01-27 08:48:00,
2013-01-27 03:52:00,13.8,-3.1,30.09,West,269,13.0,21.9,46,0.00,,---,0.00,VWS V14.01,2013-01-27 08:52:00,
2013-01-27 03:57:00,14.0,-3.0,30.12,West,267,18.1,19.9,46,0.00,,---,0.00,VWS V14.01,2013-01-27 08:57:00,
2013-01-27 04:02:00,14.0,-3.0,30.12,West,278,12.1,17.2,46,0.00,,---,0.00,VWS V14.01,2013-01-27 09:02:00,
2013-01-27 04:07:00,13.8,-3.1,30.12,West,271,17.2,19.9,46,0.00,,---,0.00,VWS V14.01,2013-01-27 09:07:00,
2013-01-27 04:12:00,13.8,-3.1,30.12,WNW,296,17.2,23.3,46,0.00,,---,0.00,VWS V14.01,2013-01-27 09:12:00,
2013-01-27 04:17:00,14.0,-3.0,30.12,West,262,19.5,19.5,46,0.00,,---,0.00,VWS V14.01,2013-01-27 09:17:00,
2013-01-27 04:22:00,13.8,-3.1,30.12,WNW,290,21.0,21.0,46,0.00,,---,0.00,VWS V14.01,2013-01-27 09:22:00,
2013-01-27 04:27:00,13.8,-3.1,30.12,West,265,19.0,19.0,46,0.00,,---,0.00,VWS V14.01,2013-01-27 09:27:00,
2013-01-27 04:32:00,14.0,-3.0,30.12,West,267,13.9,17.7,46,0.00,,---,0.00,VWS V14.01,2013-01-27 09:32:00,
2013-01-27 04:37:00,13.8,-3.1,30.12,West,277,19.5,20.1,46,0.00,,---,0.00,VWS V14.01,2013-01-27 09:37:00,
2013-01-27 04:42:00,13.6,-3.3,30.12,WNW,286,14.3,14.8,46,0.00,,---,0.00,VWS V14.01,2013-01-27 09:42:00,
2013-01-27 04:47:00,13.6,-3.3,30.12,West,271,14.3,21.0,46,0.00,,---,0.00,VWS V14.01,2013-01-27 09:47:00,
2013-01-27 04:52:00,13.6,-3.3,30.12,West,271,15.4,19.9,46,0.00,,---,0.00,VWS V14.01,2013-01-27 09:52:00,
2013-01-27 04:57:00,13.6,-3.3,30.12,WNW,288,15.9,18.6,46,0.00,,---,0.00,VWS V14.01,2013-01-27 09:57:00,
2013-01-27 05:02:00,13.6,-3.3,30.12,West,281,11.6,18.1,46,0.00,,---,0.00,VWS V14.01,2013-01-27 10:02:00,
2013-01-27 05:07:00,14.0,-2.5,30.12,WNW,283,13.9,18.6,47,0.00,,---,0.00,VWS V14.01,2013-01-27 10:07:00,
2013-01-27 05:12:00,13.6,-2.8,30.12,West,278,16.3,18.6,47,0.00,,---,0.00,VWS V14.01,2013-01-27 10:12:00,
2013-01-27 05:17:00,13.6,-2.8,30.12,WSW,253,16.3,16.3,47,0.00,,---,0.00,VWS V14.01,2013-01-27 10:17:00,
2013-01-27 05:22:00,14.0,-2.5,30.12,West,275,14.8,18.6,47,0.00,,---,0.00,VWS V14.01,2013-01-27 10:22:00,
2013-01-27 05:27:00,13.8,-2.7,30.12,West,269,10.5,15.9,47,0.00,,---,0.00,VWS V14.01,2013-01-27 10:27:00,
2013-01-27 05:32:00,13.8,-2.7,30.12,West,276,13.9,17.7,47,0.00,,---,0.00,VWS V14.01,2013-01-27 10:32:00,
2013-01-27 05:37:00,14.0,-2.5,30.12,West,262,17.7,20.6,47,0.00,,---,0.00,VWS V14.01,2013-01-27 10:37:00,
2013-01-27 05:42:00,13.6,-2.8,30.12,WNW,297,14.3,17.2,47,0.00,,---,0.00,VWS V14.01,2013-01-27 10:42:00,
2013-01-27 05:47:00,13.6,-2.8,30.12,West,273,16.8,21.9,47,0.00,,---,0.00,VWS V14.01,2013-01-27 10:47:00,
2013-01-27 05:52:00,14.0,-2.5,30.12,West,277,18.1,20.6,47,0.00,,---,0.00,VWS V14.01,2013-01-27 10:52:00,
2013-01-27 05:57:00,14.0,-2.5,30.15,NW,315,13.4,19.0,47,0.00,,---,0.00,VWS V14.01,2013-01-27 10:57:00,
2013-01-27 06:02:00,13.8,-2.7,30.15,West,278,12.5,19.5,47,0.00,,---,0.00,VWS V14.01,2013-01-27 11:02:00,
2013-01-27 06:07:00,14.0,-2.5,30.15,West,272,17.7,17.7,47,0.00,,---,0.00,VWS V14.01,2013-01-27 11:07:00,
2013-01-27 06:12:00,14.0,-2.5,30.15,WNW,300,11.2,15.2,47,0.00,,---,0.00,VWS V14.01,2013-01-27 11:12:00,
2013-01-27 06:17:00,14.0,-2.5,30.15,West,274,13.0,20.6,47,0.00,,---,0.00,VWS V14.01,2013-01-27 11:17:00,
2013-01-27 06:22:00,14.0,-2.5,30.15,West,274,17.7,17.7,47,0.00,,---,0.00,VWS V14.01,2013-01-27 11:22:00,
2013-01-27 06:27:00,14.0,-2.5,30.15,WNW,300,11.2,11.6,47,0.00,,---,0.00,VWS V14.01,2013-01-27 11:27:00,
2013-01-27 06:32:00,14.0,-2.1,30.15,West,272,15.4,19.9,48,0.00,,---,0.00,VWS V14.01,2013-01-27 11:32:00,
2013-01-27 06:37:00,14.2,-1.9,30.15,West,272,13.0,15.2,48,0.00,,---,0.00,VWS V14.01,2013-01-27 11:37:00,
2013-01-27 06:42:00,14.2,-1.9,30.15,West,279,14.8,19.0,48,0.00,,---,0.00,VWS V14.01,2013-01-27 11:42:00,
2013-01-27 06:47:00,14.2,-1.9,30.15,West,263,13.4,18.6,48,0.00,,---,0.00,VWS V14.01,2013-01-27 11:47:00,
2013-01-27 06:52:00,14.2,-1.9,30.15,WNW,300,10.5,16.3,48,0.00,,---,0.00,VWS V14.01,2013-01-27 11:52:00,
2013-01-27 06:57:00,14.4,-1.7,30.15,West,266,9.6,14.8,48,0.00,,---,0.00,VWS V14.01,2013-01-27 11:57:00,
2013-01-27 07:02:00,14.2,-1.9,30.15,West,279,9.6,15.9,48,0.00,,---,0.00,VWS V14.01,2013-01-27 12:02:00,
2013-01-27 07:07:00,14.4,-1.7,30.15,West,274,9.2,15.9,48,0.00,,---,0.00,VWS V14.01,2013-01-27 12:07:00,
2013-01-27 07:12:00,14.5,-1.6,30.18,West,269,11.2,11.6,48,0.00,,---,0.00,VWS V14.01,2013-01-27 12:12:00,
2013-01-27 07:17:00,14.9,-1.2,30.18,West,269,11.0,18.6,48,0.00,,---,0.00,VWS V14.01,2013-01-27 12:17:00,
2013-01-27 07:22:00,14.9,-1.7,30.18,West,278,12.5,13.0,47,0.00,,---,0.00,VWS V14.01,2013-01-27 12:22:00,
2013-01-27 07:27:00,15.1,-1.5,30.18,WNW,300,11.0,16.3,47,0.00,,---,0.00,VWS V14.01,2013-01-27 12:27:00,
2013-01-27 07:32:00,14.9,-1.7,30.18,West,273,13.9,15.9,47,0.00,,---,0.00,VWS V14.01,2013-01-27 12:32:00,
2013-01-27 07:37:00,14.9,-1.7,30.18,WSW,247,12.5,13.9,47,0.00,,---,0.00,VWS V14.01,2013-01-27 12:37:00,
2013-01-27 07:42:00,15.1,-1.5,30.18,NW,306,13.0,13.0,47,0.00,,---,0.00,VWS V14.01,2013-01-27 12:42:00,
2013-01-27 07:47:00,15.3,-1.3,30.18,West,278,12.5,12.5,47,0.00,,---,0.00,VWS V14.01,2013-01-27 12:47:00,
2013-01-27 07:52:00,15.6,-1.0,30.18,West,270,13.9,15.9,47,0.00,,---,0.00,VWS V14.01,2013-01-27 12:52:00,
2013-01-27 07:57:00,15.8,-0.9,30.18,NW,318,15.2,15.2,47,0.00,,---,0.00,VWS V14.01,2013-01-27 12:57:00,
2013-01-27 08:02:00,16.0,-0.7,30.18,WNW,293,13.0,13.0,47,0.00,,---,0.00,VWS V14.01,2013-01-27 13:02:00,
2013-01-27 08:07:00,16.3,-0.3,30.18,NW,315,9.6,11.0,47,0.00,,---,0.00,VWS V14.01,2013-01-27 13:07:00,
2013-01-27 08:12:00,16.3,-0.3,30.18,West,262,13.9,20.6,47,0.00,,---,0.00,VWS V14.01,2013-01-27 13:12:00,
2013-01-27 08:17:00,16.5,-0.2,30.18,NW,308,13.4,13.4,47,0.00,,---,0.00,VWS V14.01,2013-01-27 13:17:00,
2013-01-27 08:22:00,16.7,0.0,30.18,West,281,14.3,14.3,47,0.00,,---,0.00,VWS V14.01,2013-01-27 13:22:00,
2013-01-27 08:27:00,16.9,0.2,30.18,WNW,283,12.5,16.8,47,0.00,,---,0.00,VWS V14.01,2013-01-27 13:27:00,
2013-01-27 08:32:00,17.2,0.5,30.18,West,267,14.8,16.8,47,0.00,,---,0.00,VWS V14.01,2013-01-27 13:32:00,
2013-01-27 08:37:00,17.6,0.3,30.18,WNW,283,16.3,21.5,46,0.00,,---,0.00,VWS V14.01,2013-01-27 13:37:00,
2013-01-27 08:42:00,17.6,0.3,30.21,West,277,18.1,18.1,46,0.00,,---,0.00,VWS V14.01,2013-01-27 13:42:00,
2013-01-27 08:47:00,18.0,0.7,30.21,WNW,287,16.8,16.8,46,0.00,,---,0.00,VWS V14.01,2013-01-27 13:47:00,
2013-01-27 08:52:00,18.1,0.9,30.21,WNW,296,16.8,16.8,46,0.00,,---,0.00,VWS V14.01,2013-01-27 13:52:00,
2013-01-27 08:57:00,18.1,0.9,30.21,NW,317,15.9,15.9,46,0.00,,---,0.00,VWS V14.01,2013-01-27 13:57:00,
2013-01-27 09:02:00,18.3,1.0,30.21,WNW,287,20.1,20.1,46,0.00,,---,0.00,VWS V14.01,2013-01-27 14:02:00,
2013-01-27 09:07:00,18.5,1.2,30.21,NW,304,18.6,18.6,46,0.00,,---,0.00,VWS V14.01,2013-01-27 14:07:00,
2013-01-27 09:12:00,18.9,1.5,30.21,WNW,292,12.5,13.9,46,0.00,,---,0.00,VWS V14.01,2013-01-27 14:12:00,
2013-01-27 09:17:00,18.9,1.5,30.21,NW,321,14.8,16.3,46,0.00,,---,0.00,VWS V14.01,2013-01-27 14:17:00,
2013-01-27 09:22:00,19.2,1.4,30.21,WNW,296,12.1,18.1,45,0.00,,---,0.00,VWS V14.01,2013-01-27 14:22:00,
2013-01-27 09:27:00,19.2,1.8,30.21,NW,307,14.3,21.5,46,0.00,,---,0.00,VWS V14.01,2013-01-27 14:27:00,
2013-01-27 09:32:00,19.8,1.9,30.21,WNW,296,11.2,19.5,45,0.00,,---,0.00,VWS V14.01,2013-01-27 14:32:00,
2013-01-27 09:36:00,19.8,1.9,30.21,WNW,299,14.3,25.3,45,0.00,,---,0.00,VWS V14.01,2013-01-27 14:36:00,
2013-01-27 09:41:00,19.6,1.7,30.21,WNW,291,21.0,22.8,45,0.00,,---,0.00,VWS V14.01,2013-01-27 14:41:00,
2013-01-27 09:46:00,19.8,1.9,30.21,West,267,17.7,26.2,45,0.00,,---,0.00,VWS V14.01,2013-01-27 14:46:00,
2013-01-27 09:51:00,20.1,2.2,30.21,WNW,294,19.0,20.1,45,0.00,,---,0.00,VWS V14.01,2013-01-27 14:51:00,
2013-01-27 09:56:00,20.3,1.9,30.21,NW,307,11.0,15.4,44,0.00,,---,0.00,VWS V14.01,2013-01-27 14:56:00,
2013-01-27 10:01:00,20.3,1.9,30.21,WNW,289,20.1,20.1,44,0.00,,---,0.00,VWS V14.01,2013-01-27 15:01:00,
2013-01-27 10:06:00,20.5,2.0,30.21,NW,306,19.0,22.4,44,0.00,,---,0.00,VWS V14.01,2013-01-27 15:06:00,
2013-01-27 10:11:00,20.7,2.2,30.24,WNW,293,13.0,18.6,44,0.00,,---,0.00,VWS V14.01,2013-01-27 15:11:00,
2013-01-27 10:16:00,21.2,2.7,30.24,WNW,294,13.9,15.9,44,0.00,,---,0.00,VWS V14.01,2013-01-27 15:16:00,
2013-01-27 10:21:00,21.4,2.9,30.24,West,280,13.4,16.8,44,0.00,,---,0.00,VWS V14.01,2013-01-27 15:21:00,
2013-01-27 10:26:00,21.4,2.9,30.24,WNW,284,14.3,17.7,44,0.00,,---,0.00,VWS V14.01,2013-01-27 15:26:00,
2013-01-27 10:31:00,21.9,3.4,30.24,WNW,282,9.2,14.8,44,0.00,,---,0.00,VWS V14.01,2013-01-27 15:31:00,
2013-01-27 10:36:00,21.9,3.4,30.24,NW,313,17.7,19.5,44,0.00,,---,0.00,VWS V14.01,2013-01-27 15:36:00,
2013-01-27 10:41:00,22.3,3.2,30.24,WNW,291,13.4,13.9,43,0.00,,---,0.00,VWS V14.01,2013-01-27 15:41:00,
2013-01-27 10:46:00,23.0,4.3,30.24,NW,309,13.0,13.0,44,0.00,,---,0.00,VWS V14.01,2013-01-27 15:46:00,
2013-01-27 10:51:00,22.8,3.7,30.24,West,281,14.8,19.9,43,0.00,,---,0.00,VWS V14.01,2013-01-27 15:51:00,
2013-01-27 10:56:00,23.0,3.8,30.24,NNW,343,10.5,15.2,43,0.00,,---,0.00,VWS V14.01,2013-01-27 15:56:00,
2013-01-27 11:01:00,23.2,4.5,30.24,NW,304,10.5,17.2,44,0.00,,---,0.00,VWS V14.01,2013-01-27 16:01:00,
2013-01-27 11:06:00,23.4,4.7,30.24,WNW,299,13.4,18.6,44,0.00,,---,0.00,VWS V14.01,2013-01-27 16:06:00,
2013-01-27 11:11:00,23.5,4.8,30.24,WNW,302,12.5,20.1,44,0.00,,---,0.00,VWS V14.01,2013-01-27 16:11:00,
2013-01-27 11:16:00,23.0,4.3,30.24,NNW,327,14.8,21.0,44,0.00,,---,0.00,VWS V14.01,2013-01-27 16:16:00,
2013-01-27 11:21:00,23.4,4.7,30.24,NW,314,11.6,19.0,44,0.00,,---,0.00,VWS V14.01,2013-01-27 16:21:00,
2013-01-27 11:26:00,23.4,4.7,30.21,NW,307,15.9,20.1,44,0.00,,---,0.00,VWS V14.01,2013-01-27 16:26:00,
2013-01-27 11:31:00,23.4,4.7,30.21,West,270,17.7,21.0,44,0.00,,---,0.00,VWS V14.01,2013-01-27 16:31:00,
2013-01-27 11:36:00,23.5,4.8,30.21,NW,320,20.1,25.7,44,0.00,,---,0.00,VWS V14.01,2013-01-27 16:36:00,
2013-01-27 11:41:00,23.5,4.8,30.21,West,277,20.6,21.9,44,0.00,,---,0.00,VWS V14.01,2013-01-27 16:41:00,
2013-01-27 11:46:00,23.9,4.7,30.21,West,279,12.5,20.1,43,0.00,,---,0.00,VWS V14.01,2013-01-27 16:46:00,
2013-01-27 11:51:00,24.1,4.8,30.21,WNW,289,16.8,17.7,43,0.00,,---,0.00,VWS V14.01,2013-01-27 16:51:00,
2013-01-27 11:56:00,23.5,4.3,30.21,NW,320,14.3,21.9,43,0.00,,---,0.00,VWS V14.01,2013-01-27 16:56:00,
2013-01-27 12:01:00,24.1,4.8,30.21,NW,318,10.1,12.1,43,0.00,,---,0.00,VWS V14.01,2013-01-27 17:01:00,
2013-01-27 12:06:00,24.4,5.2,30.21,WNW,301,15.9,17.2,43,0.00,,---,0.00,VWS V14.01,2013-01-27 17:06:00,
2013-01-27 12:11:00,24.3,5.0,30.21,West,278,15.2,17.7,43,0.00,,---,0.00,VWS V14.01,2013-01-27 17:11:00,
2013-01-27 12:16:00,24.3,5.0,30.21,WNW,291,15.4,17.2,43,0.00,,---,0.00,VWS V14.01,2013-01-27 17:16:00,
2013-01-27 12:21:00,24.4,5.2,30.21,WNW,296,19.9,19.9,43,0.00,,---,0.00,VWS V14.01,2013-01-27 17:21:00,
2013-01-27 12:26:00,24.4,5.2,30.21,NW,310,13.4,14.3,43,0.00,,---,0.00,VWS V14.01,2013-01-27 17:26:00,
2013-01-27 12:31:00,25.0,5.7,30.21,NW,323,9.6,16.3,43,0.00,,---,0.00,VWS V14.01,2013-01-27 17:31:00,
2013-01-27 12:36:00,24.8,5.5,30.21,West,272,19.5,19.5,43,0.00,,---,0.00,VWS V14.01,2013-01-27 17:36:00,
2013-01-27 12:41:00,25.3,6.0,30.21,WNW,296,12.1,19.9,43,0.00,,---,0.00,VWS V14.01,2013-01-27 17:41:00,
2013-01-27 12:46:00,25.2,5.8,30.21,NW,313,15.9,20.1,43,0.00,,---,0.00,VWS V14.01,2013-01-27 17:46:00,
2013-01-27 12:51:00,25.3,6.0,30.21,NW,308,8.3,9.2,43,0.00,,---,0.00,VWS V14.01,2013-01-27 17:51:00,
2013-01-27 12:56:00,25.7,5.8,30.21,NNW,327,11.0,13.4,42,0.00,,---,0.00,VWS V14.01,2013-01-27 17:56:00,
2013-01-27 13:01:00,25.5,5.6,30.21,WNW,282,14.3,14.8,42,0.00,,---,0.00,VWS V14.01,2013-01-27 18:01:00,
2013-01-27 13:06:00,25.7,5.8,30.21,WNW,285,9.2,14.3,42,0.00,,---,0.00,VWS V14.01,2013-01-27 18:06:00,
2013-01-27 13:11:00,26.2,6.3,30.21,NW,318,10.1,14.8,42,0.00,,---,0.00,VWS V14.01,2013-01-27 18:11:00,
2013-01-27 13:16:00,26.1,6.1,30.21,NW,306,13.4,17.2,42,0.00,,---,0.00,VWS V14.01,2013-01-27 18:16:00,
2013-01-27 13:21:00,26.1,6.1,30.21,NW,306,11.0,16.3,42,0.00,,---,0.00,VWS V14.01,2013-01-27 18:21:00,
2013-01-27 13:26:00,26.1,6.1,30.21,WNW,298,15.9,15.9,42,0.00,,---,0.00,VWS V14.01,2013-01-27 18:26:00,
2013-01-27 13:31:00,26.4,6.4,30.21,WNW,288,5.8,9.2,42,0.00,,---,0.00,VWS V14.01,2013-01-27 18:31:00,
2013-01-27 13:36:00,26.4,6.4,30.21,West,266,10.1,11.2,42,0.00,,---,0.00,VWS V14.01,2013-01-27 18:36:00,
2013-01-27 13:41:00,26.6,6.1,30.21,West,275,15.9,15.9,41,0.00,,---,0.00,VWS V14.01,2013-01-27 18:41:00,
2013-01-27 13:46:00,26.8,6.2,30.21,WNW,297,10.5,12.5,41,0.00,,---,0.00,VWS V14.01,2013-01-27 18:46:00,
2013-01-27 13:51:00,27.0,6.4,30.21,WNW,300,11.2,15.2,41,0.00,,---,0.00,VWS V14.01,2013-01-27 18:51:00,
2013-01-27 13:56:00,27.1,6.6,30.21,NW,305,10.5,11.0,41,0.00,,---,0.00,VWS V14.01,2013-01-27 18:56:00,
2013-01-27 14:01:00,27.3,6.7,30.21,West,271,6.3,10.5,41,0.00,,---,0.00,VWS V14.01,2013-01-27 19:01:00,
2013-01-27 14:06:00,27.5,6.9,30.21,NW,315,13.4,16.3,41,0.00,,---,0.00,VWS V14.01,2013-01-27 19:06:00,
2013-01-27 14:11:00,27.5,6.9,30.21,West,277,11.2,11.2,41,0.00,,---,0.00,VWS V14.01,2013-01-27 19:11:00,
2013-01-27 14:16:00,28.0,7.4,30.21,NW,321,8.7,10.1,41,0.00,,---,0.00,VWS V14.01,2013-01-27 19:16:00,
2013-01-27 14:21:00,27.9,7.2,30.21,NW,307,12.1,12.1,41,0.00,,---,0.00,VWS V14.01,2013-01-27 19:21:00,
2013-01-27 14:26:00,28.0,7.4,30.21,NNW,332,7.4,8.7,41,0.00,,---,0.00,VWS V14.01,2013-01-27 19:26:00,
2013-01-27 14:31:00,28.2,7.0,30.21,WNW,288,8.7,10.1,40,0.00,,---,0.00,VWS V14.01,2013-01-27 19:31:00,
2013-01-27 14:36:00,28.0,6.8,30.21,WNW,292,7.8,11.0,40,0.00,,---,0.00,VWS V14.01,2013-01-27 19:36:00,
2013-01-27 14:41:00,28.6,7.9,30.21,NW,313,6.9,9.6,41,0.00,,---,0.00,VWS V14.01,2013-01-27 19:41:00,
2013-01-27 14:46:00,28.6,7.9,30.21,WNW,298,6.3,6.3,41,0.00,,---,0.00,VWS V14.01,2013-01-27 19:46:00,
2013-01-27 14:51:00,28.4,7.7,30.21,WNW,288,9.2,10.5,41,0.00,,---,0.00,VWS V14.01,2013-01-27 19:51:00,
2013-01-27 14:56:00,28.6,7.9,30.21,WNW,289,11.6,13.9,41,0.00,,---,0.00,VWS V14.01,2013-01-27 19:56:00,
2013-01-27 15:01:00,28.6,7.3,30.21,NW,308,8.3,9.2,40,0.00,,---,0.00,VWS V14.01,2013-01-27 20:01:00,
2013-01-27 15:06:00,28.8,6.9,30.21,WNW,301,11.6,14.8,39,0.00,,---,0.00,VWS V14.01,2013-01-27 20:06:00,
2013-01-27 15:11:00,28.8,6.9,30.21,WNW,288,11.6,13.0,39,0.00,,---,0.00,VWS V14.01,2013-01-27 20:11:00,
2013-01-27 15:16:00,29.1,7.3,30.21,NW,319,18.1,18.1,39,0.00,,---,0.00,VWS V14.01,2013-01-27 20:16:00,
2013-01-27 15:21:00,28.9,7.1,30.21,West,280,7.8,7.8,39,0.00,,---,0.00,VWS V14.01,2013-01-27 20:21:00,
2013-01-27 15:26:00,28.9,7.7,30.21,NW,304,8.7,8.7,40,0.00,,---,0.00,VWS V14.01,2013-01-27 20:26:00,
2013-01-27 15:31:00,29.1,6.7,30.21,WNW,284,11.6,11.6,38,0.00,,---,0.00,VWS V14.01,2013-01-27 20:31:00,
2013-01-27 15:36:00,29.1,6.7,30.21,WNW,297,11.6,11.6,38,0.00,,---,0.00,VWS V14.01,2013-01-27 20:36:00,
2013-01-27 15:41:00,29.1,6.7,30.21,WNW,299,7.8,7.8,38,0.00,,---,0.00,VWS V14.01,2013-01-27 20:41:00,
2013-01-27 15:46:00,29.1,6.7,30.21,WNW,292,9.6,9.6,38,0.00,,---,0.00,VWS V14.01,2013-01-27 20:46:00,
2013-01-27 15:51:00,28.8,6.4,30.21,West,277,9.6,12.1,38,0.00,,---,0.00,VWS V14.01,2013-01-27 20:51:00,
2013-01-27 15:56:00,28.8,6.4,30.21,NW,304,7.4,7.8,38,0.00,,---,0.00,VWS V14.01,2013-01-27 20:56:00,
2013-01-27 16:01:00,28.9,7.1,30.21,WNW,293,6.9,8.3,39,0.00,,---,0.00,VWS V14.01,2013-01-27 21:01:00,
2013-01-27 16:06:00,29.1,6.7,30.21,West,279,8.7,10.5,38,0.00,,---,0.00,VWS V14.01,2013-01-27 21:06:00,
2013-01-27 16:11:00,29.3,6.3,30.21,West,275,13.0,15.4,37,0.00,,---,0.00,VWS V14.01,2013-01-27 21:11:00,
2013-01-27 16:16:00,29.1,5.5,30.21,WNW,302,9.6,13.9,36,0.00,,---,0.00,VWS V14.01,2013-01-27 21:16:00,
2013-01-27 16:20:00,28.8,5.2,30.21,NW,312,8.7,12.1,36,0.00,,---,0.00,VWS V14.01,2013-01-27 21:20:00,
2013-01-27 16:25:00,28.6,5.0,30.21,WNW,297,8.7,9.2,36,0.00,,---,0.00,VWS V14.01,2013-01-27 21:25:00,
2013-01-27 16:30:00,28.2,4.7,30.21,West,277,7.8,10.1,36,0.00,,---,0.00,VWS V14.01,2013-01-27 21:30:00,
2013-01-27 16:35:00,28.2,4.7,30.21,West,280,8.7,11.6,36,0.00,,---,0.00,VWS V14.01,2013-01-27 21:35:00,
2013-01-27 16:40:00,28.0,4.5,30.21,WNW,286,6.3,9.6,36,0.00,,---,0.00,VWS V14.01,2013-01-27 21:40:00,
2013-01-27 16:45:00,27.7,4.2,30.21,West,269,10.1,10.1,36,0.00,,---,0.00,VWS V14.01,2013-01-27 21:45:00,
2013-01-27 16:50:00,27.7,4.2,30.21,West,272,11.6,11.6,36,0.00,,---,0.00,VWS V14.01,2013-01-27 21:50:00,
2013-01-27 16:55:00,27.3,4.5,30.24,West,267,10.1,11.6,37,0.00,,---,0.00,VWS V14.01,2013-01-27 21:55:00,
2013-01-27 17:00:00,27.3,4.5,30.24,West,273,7.8,9.6,37,0.00,,---,0.00,VWS V14.01,2013-01-27 22:00:00,
2013-01-27 17:05:00,27.1,4.3,30.24,West,272,12.1,12.1,37,0.00,,---,0.00,VWS V14.01,2013-01-27 22:05:00,
2013-01-27 17:10:00,27.1,3.7,30.24,West,259,10.5,11.6,36,0.00,,---,0.00,VWS V14.01,2013-01-27 22:10:00,
2013-01-27 17:15:00,27.0,4.2,30.24,WSW,256,5.4,11.0,37,0.00,,---,0.00,VWS V14.01,2013-01-27 22:15:00,
2013-01-27 17:20:00,26.8,4.0,30.24,West,280,5.8,9.6,37,0.00,,---,0.00,VWS V14.01,2013-01-27 22:20:00,
2013-01-27 17:25:00,26.4,3.1,30.24,West,279,6.3,6.9,36,0.00,,---,0.00,VWS V14.01,2013-01-27 22:25:00,
2013-01-27 17:30:00,26.4,3.1,30.24,West,261,8.3,11.0,36,0.00,,---,0.00,VWS V14.01,2013-01-27 22:30:00,
2013-01-27 17:35:00,26.4,3.1,30.24,West,271,9.2,10.5,36,0.00,,---,0.00,VWS V14.01,2013-01-27 22:35:00,
2013-01-27 17:40:00,26.4,3.1,30.24,West,270,10.5,11.6,36,0.00,,---,0.00,VWS V14.01,2013-01-27 22:40:00,
2013-01-27 17:45:00,26.4,3.1,30.24,West,272,10.5,10.5,36,0.00,,---,0.00,VWS V14.01,2013-01-27 22:45:00,
2013-01-27 17:50:00,26.4,3.1,30.24,West,274,6.3,9.2,36,0.00,,---,0.00,VWS V14.01,2013-01-27 22:50:00,
2013-01-27 17:55:00,26.2,2.9,30.27,West,275,10.5,10.5,36,0.00,,---,0.00,VWS V14.01,2013-01-27 22:55:00,
2013-01-27 18:00:00,26.2,2.9,30.27,West,262,7.4,10.5,36,0.00,,---,0.00,VWS V14.01,2013-01-27 23:00:00,
2013-01-27 18:05:00,26.1,2.8,30.27,West,273,7.4,7.4,36,0.00,,---,0.00,VWS V14.01,2013-01-27 23:05:00,
2013-01-27 18:10:00,25.7,3.0,30.27,West,263,7.4,9.2,37,0.00,,---,0.00,VWS V14.01,2013-01-27 23:10:00,
2013-01-27 18:15:00,25.7,2.5,30.27,WSW,254,5.8,7.8,36,0.00,,---,0.00,VWS V14.01,2013-01-27 23:15:00,
2013-01-27 18:20:00,25.9,2.6,30.27,WSW,253,5.4,6.9,36,0.00,,---,0.00,VWS V14.01,2013-01-27 23:20:00,
2013-01-27 18:25:00,25.9,2.6,30.27,WSW,255,6.7,10.5,36,0.00,,---,0.00,VWS V14.01,2013-01-27 23:25:00,
2013-01-27 18:30:00,25.9,2.6,30.27,West,261,5.4,7.8,36,0.00,,---,0.00,VWS V14.01,2013-01-27 23:30:00,
2013-01-27 18:35:00,25.5,2.9,30.27,West,260,7.4,11.2,37,0.00,,---,0.00,VWS V14.01,2013-01-27 23:35:00,
2013-01-27 18:40:00,25.5,2.9,30.27,West,266,8.7,8.7,37,0.00,,---,0.00,VWS V14.01,2013-01-27 23:40:00,
2013-01-27 18:45:00,25.0,2.4,30.27,West,269,6.9,6.9,37,0.00,,---,0.00,VWS V14.01,2013-01-27 23:45:00,
2013-01-27 18:50:00,24.8,2.2,30.27,West,269,6.9,6.9,37,0.00,,---,0.00,VWS V14.01,2013-01-27 23:50:00,
2013-01-27 18:55:00,24.8,2.2,30.27,West,270,5.8,7.8,37,0.00,,---,0.00,VWS V14.01,2013-01-27 23:55:00,
2013-01-27 19:00:00,24.6,2.1,30.27,West,262,6.9,6.9,37,0.00,,---,0.00,VWS V14.01,2013-01-28 00:00:00,
2013-01-27 19:05:00,24.6,2.1,30.27,WSW,245,6.3,9.6,37,0.00,,---,0.00,VWS V14.01,2013-01-28 00:05:00,
2013-01-27 19:10:00,25.0,2.4,30.27,WSW,254,7.4,10.1,37,0.00,,---,0.00,VWS V14.01,2013-01-28 00:10:00,
2013-01-27 19:15:00,25.2,2.6,30.27,West,273,8.3,9.2,37,0.00,,---,0.00,VWS V14.01,2013-01-28 00:15:00,
2013-01-27 19:20:00,25.0,1.8,30.27,WSW,257,7.8,10.5,36,0.00,,---,0.00,VWS V14.01,2013-01-28 00:20:00,
2013-01-27 19:25:00,25.0,1.8,30.27,West,279,10.1,11.6,36,0.00,,---,0.00,VWS V14.01,2013-01-28 00:25:00,
2013-01-27 19:30:00,25.0,1.8,30.27,West,273,8.7,11.2,36,0.00,,---,0.00,VWS V14.01,2013-01-28 00:30:00,
2013-01-27 19:35:00,25.0,1.8,30.27,WNW,282,7.8,9.6,36,0.00,,---,0.00,VWS V14.01,2013-01-28 00:35:00,
2013-01-27 19:40:00,24.4,1.9,30.27,West,274,7.4,7.4,37,0.00,,---,0.00,VWS V14.01,2013-01-28 00:40:00,
2013-01-27 19:45:00,24.6,1.5,30.27,West,277,8.3,9.2,36,0.00,,---,0.00,VWS V14.01,2013-01-28 00:45:00,
2013-01-27 19:50:00,24.3,1.2,30.27,West,272,5.8,6.3,36,0.00,,---,0.00,VWS V14.01,2013-01-28 00:50:00,
2013-01-27 19:55:00,23.7,1.3,30.27,West,275,4.9,6.7,37,0.00,,---,0.00,VWS V14.01,2013-01-28 00:55:00,
2013-01-27 20:00:00,23.4,0.9,30.27,West,277,6.3,6.3,37,0.00,,---,0.00,VWS V14.01,2013-01-28 01:00:00,
2013-01-27 20:05:00,23.2,0.8,30.27,West,264,5.4,5.4,37,0.00,,---,0.00,VWS V14.01,2013-01-28 01:05:00,
2013-01-27 20:10:00,23.2,0.8,30.27,WNW,286,6.7,7.8,37,0.00,,---,0.00,VWS V14.01,2013-01-28 01:10:00,
2013-01-27 20:15:00,23.4,0.9,30.27,West,268,6.3,6.9,37,0.00,,---,0.00,VWS V14.01,2013-01-28 01:15:00,
2013-01-27 20:20:00,23.5,1.1,30.27,WNW,284,6.9,7.8,37,0.00,,---,0.00,VWS V14.01,2013-01-28 01:20:00,
2013-01-27 20:25:00,23.7,1.3,30.30,West,270,9.2,10.5,37,0.00,,---,0.00,VWS V14.01,2013-01-28 01:25:00,
2013-01-27 20:30:00,24.1,1.6,30.30,West,259,8.3,9.2,37,0.00,,---,0.00,VWS V14.01,2013-01-28 01:30:00,
2013-01-27 20:35:00,24.1,1.0,30.30,West,265,10.1,10.5,36,0.00,,---,0.00,VWS V14.01,2013-01-28 01:35:00,
2013-01-27 20:40:00,24.1,1.0,30.27,West,261,10.5,11.6,36,0.00,,---,0.00,VWS V14.01,2013-01-28 01:40:00,
2013-01-27 20:45:00,24.1,1.6,30.27,West,277,11.0,12.5,37,0.00,,---,0.00,VWS V14.01,2013-01-28 01:45:00,
2013-01-27 20:50:00,24.1,1.6,30.27,West,275,7.8,9.6,37,0.00,,---,0.00,VWS V14.01,2013-01-28 01:50:00,
2013-01-27 20:55:00,23.7,1.3,30.27,NW,315,8.7,8.7,37,0.00,,---,0.00,VWS V14.01,2013-01-28 01:55:00,
2013-01-27 21:00:00,23.9,1.4,30.27,WNW,290,10.5,11.0,37,0.00,,---,0.00,VWS V14.01,2013-01-28 02:00:00,
2013-01-27 21:05:00,23.9,2.0,30.27,WNW,294,8.3,9.2,38,0.00,,---,0.00,VWS V14.01,2013-01-28 02:05:00,
2013-01-27 21:10:00,23.9,1.4,30.27,WNW,284,9.2,10.1,37,0.00,,---,0.00,VWS V14.01,2013-01-28 02:10:00,
2013-01-27 21:15:00,23.5,1.7,30.27,NW,309,6.7,6.7,38,0.00,,---,0.00,VWS V14.01,2013-01-28 02:15:00,
2013-01-27 21:20:00,23.7,1.8,30.27,West,264,6.9,8.3,38,0.00,,---,0.00,VWS V14.01,2013-01-28 02:20:00,
2013-01-27 21:25:00,23.7,1.8,30.27,WNW,298,7.4,7.4,38,0.00,,---,0.00,VWS V14.01,2013-01-28 02:25:00,
2013-01-27 21:30:00,23.7,1.8,30.27,WNW,290,10.1,10.1,38,0.00,,---,0.00,VWS V14.01,2013-01-28 02:30:00,
2013-01-27 21:35:00,23.7,1.8,30.27,WNW,300,6.7,6.9,38,0.00,,---,0.00,VWS V14.01,2013-01-28 02:35:00,
2013-01-27 21:40:00,23.5,1.7,30.27,West,261,4.9,5.4,38,0.00,,---,0.00,VWS V14.01,2013-01-28 02:40:00,
2013-01-27 21:45:00,23.5,1.7,30.27,West,268,6.9,7.4,38,0.00,,---,0.00,VWS V14.01,2013-01-28 02:45:00,
2013-01-27 21:50:00,23.2,1.4,30.27,SW,230,6.3,6.7,38,0.00,,---,0.00,VWS V14.01,2013-01-28 02:50:00,
2013-01-27 21:55:00,22.8,1.0,30.30,SW,229,6.9,6.9,38,0.00,,---,0.00,VWS V14.01,2013-01-28 02:55:00,
2013-01-27 22:00:00,22.3,0.5,30.30,WSW,239,5.8,5.8,38,0.00,,---,0.00,VWS V14.01,2013-01-28 03:00:00,
2013-01-27 22:05:00,22.1,0.4,30.30,SW,226,6.3,6.7,38,0.00,,---,0.00,VWS V14.01,2013-01-28 03:05:00,
2013-01-27 22:10:00,22.1,0.4,30.27,SW,214,7.4,8.3,38,0.00,,---,0.00,VWS V14.01,2013-01-28 03:10:00,
2013-01-27 22:15:00,22.5,0.1,30.27,SW,225,6.7,7.4,37,0.00,,---,0.00,VWS V14.01,2013-01-28 03:15:00,
2013-01-27 22:20:00,22.3,0.0,30.27,SW,225,6.7,9.6,37,0.00,,---,0.00,VWS V14.01,2013-01-28 03:20:00,
2013-01-27 22:25:00,22.1,-0.2,30.30,SSW,212,4.9,5.8,37,0.00,,---,0.00,VWS V14.01,2013-01-28 03:25:00,
2013-01-27 22:30:00,21.9,-0.3,30.30,SW,227,6.7,6.7,37,0.00,,---,0.00,VWS V14.01,2013-01-28 03:30:00,
2013-01-27 22:35:00,22.1,-0.2,30.30,WSW,252,7.8,7.8,37,0.00,,---,0.00,VWS V14.01,2013-01-28 03:35:00,
2013-01-27 22:40:00,22.1,-0.8,30.30,WSW,256,7.4,7.4,36,0.00,,---,0.00,VWS V14.01,2013-01-28 03:40:00,
2013-01-27 22:45:00,22.1,-0.2,30.30,WSW,250,7.8,7.8,37,0.00,,---,0.00,VWS V14.01,2013-01-28 03:45:00,
2013-01-27 22:50:00,22.1,-0.2,30.30,SW,221,6.7,7.8,37,0.00,,---,0.00,VWS V14.01,2013-01-28 03:50:00,
2013-01-27 22:55:00,21.6,-0.7,30.30,SW,222,6.3,6.9,37,0.00,,---,0.00,VWS V14.01,2013-01-28 03:55:00,
2013-01-27 23:00:00,21.4,-0.8,30.30,SW,218,6.9,7.8,37,0.00,,---,0.00,VWS V14.01,2013-01-28 04:00:00,
2013-01-27 23:05:00,21.4,-0.8,30.30,SW,224,6.7,6.7,37,0.00,,---,0.00,VWS V14.01,2013-01-28 04:05:00,
2013-01-27 23:10:00,21.4,-0.8,30.30,SW,223,7.8,7.8,37,0.00,,---,0.00,VWS V14.01,2013-01-28 04:10:00,
2013-01-27 23:15:00,21.2,-0.4,30.30,WSW,249,6.9,7.8,38,0.00,,---,0.00,VWS V14.01,2013-01-28 04:15:00,
2013-01-27 23:20:00,21.2,-0.4,30.30,West,259,5.4,5.8,38,0.00,,---,0.00,VWS V14.01,2013-01-28 04:20:00,
2013-01-27 23:25:00,21.0,-0.6,30.30,WSW,250,4.5,5.4,38,0.00,,---,0.00,VWS V14.01,2013-01-28 04:25:00,
2013-01-27 23:30:00,20.8,-0.8,30.30,SW,224,7.8,7.8,38,0.00,,---,0.00,VWS V14.01,2013-01-28 04:30:00,
2013-01-27 23:35:00,21.0,0.0,30.30,WSW,248,6.9,6.9,39,0.00,,---,0.00,VWS V14.01,2013-01-28 04:35:00,
2013-01-27 23:40:00,20.7,-0.4,30.30,WSW,246,5.8,6.3,39,0.00,,---,0.00,VWS V14.01,2013-01-28 04:40:00,
2013-01-27 23:45:00,20.3,-0.7,30.30,WSW,240,4.9,4.9,39,0.00,,---,0.00,VWS V14.01,2013-01-28 04:45:00,
2013-01-27 23:50:00,19.9,-0.5,30.30,SW,232,5.4,5.4,40,0.00,,---,0.00,VWS V14.01,2013-01-28 04:50:00,
2013-01-27 23:55:00,19.6,-0.8,30.30,SW,226,4.9,5.8,40,0.00,,---,0.00,VWS V14.01,2013-01-28 04:55:00,